createdAt,value
2022-12-19T00:00:43.456Z,2.42
2022-12-19T00:03:11.496Z,2.29
2022-12-19T00:05:40.719Z,2.41
2022-12-19T00:08:17.813Z,2.30
2022-12-19T00:10:56.350Z,2.42
2022-12-19T00:13:25.436Z,2.37
2022-12-19T00:15:53.502Z,2.38
2022-12-19T00:18:21.419Z,2.40
2022-12-19T00:20:58.388Z,2.36
2022-12-19T00:23:30.459Z,2.42
2022-12-19T00:26:10.083Z,2.38
2022-12-19T00:28:38.003Z,2.41
2022-12-19T00:31:06.371Z,2.49
2022-12-19T00:33:34.915Z,2.49
2022-12-19T00:36:10.513Z,2.44
2022-12-19T00:38:39.977Z,2.46
2022-12-19T00:41:12.552Z,2.47
2022-12-19T00:43:40.895Z,2.51
2022-12-19T00:46:12.539Z,2.60
2022-12-19T00:48:42.185Z,2.48
2022-12-19T00:51:13.563Z,2.51
2022-12-19T00:53:44.639Z,2.46
2022-12-19T00:56:17.164Z,2.48
2022-12-19T00:58:47.392Z,2.56
2022-12-19T01:01:19.699Z,2.59
2022-12-19T01:04:19.159Z,2.54
2022-12-19T01:06:36.433Z,2.62
2022-12-19T01:09:07.983Z,2.62
2022-12-19T01:11:55.766Z,2.72
2022-12-19T01:14:23.682Z,2.77
2022-12-19T01:16:52.243Z,2.74
2022-12-19T01:19:20.705Z,2.70
2022-12-19T01:21:48.751Z,2.75
2022-12-19T01:24:18.919Z,2.80
2022-12-19T01:26:51.929Z,2.76
2022-12-19T01:29:19.704Z,2.84
2022-12-19T01:31:48.877Z,2.86
2022-12-19T01:34:16.727Z,2.82
2022-12-19T01:36:44.621Z,2.92
2022-12-19T01:39:12.393Z,2.87
2022-12-19T01:41:40.250Z,2.82
2022-12-19T01:44:10.121Z,2.86
2022-12-19T01:46:43.692Z,2.90
2022-12-19T01:49:25.029Z,3.02
2022-12-19T01:51:56.826Z,3.07
2022-12-19T01:54:35.826Z,3.04
2022-12-19T01:57:11.215Z,3.01
2022-12-19T01:59:46.037Z,2.96
2022-12-19T02:02:23.086Z,3.02
2022-12-19T02:04:51.050Z,3.02
2022-12-19T02:07:24.018Z,3.01
2022-12-19T02:09:57.777Z,3.01
2022-12-19T02:12:39.977Z,3.01
2022-12-19T02:15:14.989Z,3.03
2022-12-19T02:18:08.349Z,3.07
2022-12-19T02:21:14.847Z,3.11
2022-12-19T02:24:14.308Z,3.10
2022-12-19T02:27:25.511Z,3.22
2022-12-19T02:30:12.725Z,3.24
2022-12-19T02:32:59.279Z,3.19
2022-12-19T02:35:35.292Z,3.24
2022-12-19T02:38:16.005Z,3.26
2022-12-19T02:40:55.640Z,3.33
2022-12-19T02:43:31.038Z,3.35
2022-12-19T02:46:03.668Z,3.30
2022-12-19T02:48:35.297Z,3.38
2022-12-19T02:51:05.691Z,3.34
2022-12-19T02:53:36.365Z,3.37
2022-12-19T02:56:38.134Z,3.44
2022-12-19T02:59:24.925Z,3.47
2022-12-19T03:02:04.140Z,3.59
2022-12-19T03:04:48.010Z,3.60
2022-12-19T03:07:29.250Z,3.65
2022-12-19T03:10:12.793Z,3.65
2022-12-19T03:12:53.516Z,3.74
2022-12-19T03:15:23.774Z,3.78
2022-12-19T03:17:56.903Z,3.77
2022-12-19T03:20:40.269Z,3.74
2022-12-19T03:23:08.367Z,3.79
2022-12-19T03:25:36.245Z,3.81
2022-12-19T03:28:11.874Z,3.90
2022-12-19T03:30:44.611Z,3.84
2022-12-19T03:33:17.300Z,3.83
2022-12-19T03:35:48.796Z,3.91
2022-12-19T03:38:20.693Z,3.91
2022-12-19T03:40:49.985Z,3.90
2022-12-19T03:43:22.044Z,3.89
2022-12-19T03:46:02.040Z,3.81
2022-12-19T03:48:40.969Z,3.79
2022-12-19T03:51:26.683Z,3.99
2022-12-19T03:54:01.781Z,3.98
2022-12-19T03:56:40.049Z,3.99
2022-12-19T03:59:17.055Z,4.03
2022-12-19T04:01:46.837Z,4.10
2022-12-19T04:04:16.348Z,3.99
2022-12-19T04:06:47.028Z,4.06
2022-12-19T04:09:22.554Z,4.11
2022-12-19T04:11:58.752Z,4.12
2022-12-19T04:14:31.915Z,4.12
2022-12-19T04:17:15.786Z,4.21
2022-12-19T04:19:51.119Z,4.23
2022-12-19T04:22:29.256Z,4.24
2022-12-19T04:25:00.607Z,4.29
2022-12-19T04:27:35.679Z,4.32
2022-12-19T04:30:09.688Z,4.34
2022-12-19T04:32:40.471Z,4.38
2022-12-19T04:35:09.495Z,4.29
2022-12-19T04:37:38.867Z,4.34
2022-12-19T04:40:08.920Z,4.29
2022-12-19T04:42:37.072Z,4.37
2022-12-19T04:45:07.073Z,4.38
2022-12-19T04:47:35.512Z,4.46
2022-12-19T04:50:03.697Z,4.47
2022-12-19T04:52:31.520Z,4.56
2022-12-19T04:55:00.622Z,4.50
2022-12-19T04:57:30.026Z,4.51
2022-12-19T04:59:58.286Z,4.55
2022-12-19T05:02:26.941Z,4.51
2022-12-19T05:04:55.173Z,4.51
2022-12-19T05:07:23.074Z,4.49
2022-12-19T05:09:50.863Z,4.54
2022-12-19T05:12:20.044Z,4.52
2022-12-19T05:14:48.304Z,4.51
2022-12-19T05:17:16.283Z,4.57
2022-12-19T05:19:44.108Z,4.50
2022-12-19T05:22:11.847Z,4.61
2022-12-19T05:24:39.541Z,4.67
2022-12-19T05:27:07.579Z,4.64
2022-12-19T05:29:36.617Z,4.64
2022-12-19T05:32:04.546Z,4.71
2022-12-19T05:34:32.428Z,4.74
2022-12-19T05:37:02.920Z,4.81
2022-12-19T05:39:30.741Z,4.83
2022-12-19T05:41:58.542Z,5.02
2022-12-19T05:44:27.589Z,5.06
2022-12-19T05:46:56.927Z,5.10
2022-12-19T05:49:24.773Z,5.09
2022-12-19T05:51:52.905Z,5.09
2022-12-19T05:54:20.888Z,5.07
2022-12-19T05:56:48.620Z,5.12
2022-12-19T05:59:16.498Z,5.11
2022-12-19T06:01:44.409Z,5.27
2022-12-19T06:04:13.680Z,5.24
2022-12-19T06:06:41.455Z,5.28
2022-12-19T06:09:09.212Z,5.25
2022-12-19T06:11:36.976Z,5.32
2022-12-19T06:14:08.057Z,5.39
2022-12-19T06:16:35.945Z,5.42
2022-12-19T06:19:03.969Z,5.41
2022-12-19T06:21:33.145Z,5.41
2022-12-19T06:24:01.151Z,5.36
2022-12-19T06:26:29.424Z,5.47
2022-12-19T06:28:57.298Z,5.48
2022-12-19T06:31:25.816Z,5.61
2022-12-19T06:33:55.411Z,5.53
2022-12-19T06:36:26.102Z,5.62
2022-12-19T06:39:00.159Z,5.61
2022-12-19T06:41:46.943Z,5.69
2022-12-19T06:44:17.249Z,5.65
2022-12-19T06:46:45.145Z,5.67
2022-12-19T06:49:13.132Z,5.66
2022-12-19T06:51:41.320Z,5.76
2022-12-19T06:54:11.465Z,5.81
2022-12-19T06:56:41.969Z,5.95
2022-12-19T06:59:14.392Z,5.92
2022-12-19T07:01:59.721Z,5.96
2022-12-19T07:04:32.521Z,5.98
2022-12-19T07:07:01.317Z,6.04
2022-12-19T07:09:31.719Z,6.03
2022-12-19T07:12:00.901Z,6.06
2022-12-19T07:14:28.628Z,6.05
2022-12-19T07:17:00.863Z,6.11
2022-12-19T07:19:31.367Z,6.20
2022-12-19T07:22:02.146Z,6.29
2022-12-19T07:24:32.270Z,6.30
2022-12-19T07:27:00.193Z,6.30
2022-12-19T07:29:28.080Z,6.43
2022-12-19T07:31:55.978Z,6.46
2022-12-19T07:34:23.964Z,6.39
2022-12-19T07:36:51.866Z,6.50
2022-12-19T07:39:19.687Z,6.45
2022-12-19T07:41:48.777Z,6.49
2022-12-19T07:44:28.124Z,6.49
2022-12-19T07:46:56.236Z,6.51
2022-12-19T07:49:24.358Z,6.57
2022-12-19T07:51:52.132Z,6.60
2022-12-19T07:54:19.961Z,6.65
2022-12-19T07:56:49.724Z,6.65
2022-12-19T07:59:18.125Z,6.71
2022-12-19T08:01:46.743Z,6.68
2022-12-19T08:04:14.893Z,6.78
2022-12-19T08:06:42.687Z,6.80
2022-12-19T08:09:10.447Z,6.82
2022-12-19T08:11:38.910Z,6.78
2022-12-19T08:14:08.034Z,6.78
2022-12-19T08:17:10.921Z,6.80
2022-12-19T08:19:27.813Z,6.84
2022-12-19T08:21:55.958Z,6.89
2022-12-19T08:24:24.684Z,6.87
2022-12-19T08:26:52.748Z,6.94
2022-12-19T08:29:22.871Z,6.99
2022-12-19T08:31:51.180Z,6.98
2022-12-19T08:34:19.137Z,6.92
2022-12-19T08:36:47.073Z,6.95
2022-12-19T08:39:14.952Z,6.97
2022-12-19T08:41:42.666Z,7.07
2022-12-19T08:44:13.495Z,7.16
2022-12-19T08:46:49.440Z,7.14
2022-12-19T08:49:18.782Z,7.20
2022-12-19T08:51:47.118Z,7.26
2022-12-19T08:54:15.208Z,7.33
2022-12-19T08:56:46.299Z,7.33
2022-12-19T08:59:18.716Z,7.48
2022-12-19T09:01:56.333Z,7.65
2022-12-19T09:05:13.566Z,7.64
2022-12-19T09:07:15.286Z,7.72
2022-12-19T09:09:44.083Z,7.76
2022-12-19T09:12:13.603Z,7.78
2022-12-19T09:14:41.555Z,7.97
2022-12-19T09:17:10.855Z,7.95
2022-12-19T09:19:38.637Z,8.04
2022-12-19T09:22:07.738Z,8.06
2022-12-19T09:24:35.561Z,8.01
2022-12-19T09:27:03.471Z,8.01
2022-12-19T09:29:35.362Z,8.06
2022-12-19T09:32:03.662Z,8.10
2022-12-19T09:34:38.317Z,8.21
2022-12-19T09:37:08.379Z,8.25
2022-12-19T09:39:36.604Z,8.25
2022-12-19T09:42:27.666Z,8.27
2022-12-19T09:45:19.505Z,8.36
2022-12-19T09:48:01.859Z,8.40
2022-12-19T09:50:47.897Z,8.41
2022-12-19T09:53:25.628Z,8.42
2022-12-19T09:55:54.812Z,8.47
2022-12-19T09:58:41.006Z,8.45
2022-12-19T10:01:20.358Z,8.45
2022-12-19T10:04:00.991Z,8.54
2022-12-19T10:07:15.901Z,8.57
2022-12-19T10:11:18.591Z,8.65
2022-12-19T10:12:53.004Z,8.58
2022-12-19T10:15:35.774Z,8.67
2022-12-19T10:18:31.805Z,8.61
2022-12-19T10:21:07.608Z,8.60
2022-12-19T10:23:59.763Z,8.67
2022-12-19T10:26:39.915Z,8.72
2022-12-19T10:29:34.090Z,8.76
2022-12-19T10:32:13.890Z,8.86
2022-12-19T10:34:44.758Z,8.88
2022-12-19T10:37:25.351Z,9.09
2022-12-19T10:40:20.018Z,9.04
2022-12-19T10:43:09.376Z,9.23
2022-12-19T10:45:47.052Z,9.15
2022-12-19T10:48:19.718Z,9.23
2022-12-19T10:50:50.734Z,9.45
2022-12-19T10:53:28.779Z,9.46
2022-12-19T10:56:13.018Z,9.35
2022-12-19T10:58:44.387Z,9.38
2022-12-19T11:01:17.630Z,9.40
2022-12-19T11:03:54.564Z,9.40
2022-12-19T11:06:57.083Z,9.36
2022-12-19T11:09:29.255Z,9.43
2022-12-19T11:15:38.004Z,9.43
2022-12-19T11:19:42.376Z,9.52
2022-12-19T11:23:31.368Z,9.58
2022-12-19T11:30:05.066Z,9.57
2022-12-19T11:30:41.365Z,9.72
2022-12-19T11:30:47.997Z,9.66
2022-12-19T11:32:41.551Z,9.75
2022-12-19T11:35:19.921Z,9.76
2022-12-19T11:37:55.864Z,9.75
2022-12-19T11:40:34.076Z,9.75
2022-12-19T11:46:16.231Z,9.78
2022-12-19T11:48:53.712Z,9.80
2022-12-19T11:51:32.319Z,9.82
2022-12-19T11:54:13.904Z,9.78
2022-12-19T11:56:41.921Z,9.69
2022-12-19T11:59:18.308Z,9.79
2022-12-19T12:02:09.758Z,9.85
2022-12-19T12:05:08.624Z,9.91
2022-12-19T12:08:37.099Z,10.01
2022-12-19T12:15:23.545Z,10.17
2022-12-19T12:20:55.070Z,10.11
2022-12-19T12:29:35.381Z,10.22
2022-12-19T12:31:13.627Z,10.18
2022-12-19T12:31:41.877Z,10.33
2022-12-19T12:32:00.733Z,10.30
2022-12-19T12:32:03.001Z,10.31
2022-12-19T12:35:50.036Z,10.18
2022-12-19T12:38:43.277Z,10.11
2022-12-19T12:41:46.269Z,10.11
2022-12-19T12:44:15.524Z,10.02
2022-12-19T12:46:49.293Z,10.05
2022-12-19T12:49:35.966Z,10.04
2022-12-19T12:52:12.893Z,10.14
2022-12-19T12:54:45.354Z,10.18
2022-12-19T12:57:33.890Z,10.20
2022-12-19T13:00:24.695Z,10.21
2022-12-19T13:03:02.560Z,10.37
2022-12-19T13:05:53.385Z,10.37
2022-12-19T13:08:34.314Z,10.31
2022-12-19T13:11:06.780Z,10.36
2022-12-19T13:13:53.697Z,10.37
2022-12-19T13:16:54.276Z,10.38
2022-12-19T13:19:28.884Z,10.31
2022-12-19T13:22:23.079Z,10.41
2022-12-19T13:24:54.746Z,10.44
2022-12-19T13:27:39.220Z,10.56
2022-12-19T13:30:20.169Z,10.61
2022-12-19T13:33:10.095Z,10.60
2022-12-19T13:37:05.286Z,10.58
2022-12-19T13:39:58.052Z,10.58
2022-12-19T13:41:58.310Z,10.52
2022-12-19T13:44:27.635Z,10.39
2022-12-19T13:46:56.569Z,10.46
2022-12-19T13:49:34.768Z,10.44
2022-12-19T13:52:06.888Z,10.36
2022-12-19T13:54:46.734Z,10.35
2022-12-19T13:57:24.802Z,10.36
2022-12-19T14:00:00.031Z,10.26
2022-12-19T14:02:44.080Z,10.23
2022-12-19T14:05:34.065Z,10.25
2022-12-19T14:08:21.473Z,10.24
2022-12-19T14:11:29.020Z,10.16
2022-12-19T14:14:16.535Z,10.18
2022-12-19T14:16:48.504Z,10.11
2022-12-19T14:19:21.794Z,10.08
2022-12-19T14:22:11.804Z,10.12
2022-12-19T14:24:53.078Z,10.06
2022-12-19T14:28:24.935Z,10.09
2022-12-19T14:30:30.060Z,10.12
2022-12-19T14:33:45.357Z,10.03
2022-12-19T14:36:08.442Z,10.06
2022-12-19T14:39:24.217Z,10.13
2022-12-19T14:42:03.000Z,10.14
2022-12-19T14:52:26.128Z,10.07
2022-12-19T14:54:05.507Z,9.99
2022-12-19T14:54:06.895Z,10.02
2022-12-19T14:55:08.281Z,10.01
2022-12-19T14:57:00.310Z,9.97
2022-12-19T14:59:35.430Z,10.00
2022-12-19T15:02:28.167Z,9.93
2022-12-19T15:05:07.607Z,9.87
2022-12-19T15:07:40.991Z,9.86
2022-12-19T15:11:10.902Z,9.74
2022-12-19T15:14:58.566Z,9.86
2022-12-19T15:16:26.747Z,9.80
2022-12-19T15:18:58.545Z,9.75
2022-12-19T15:21:29.832Z,9.63
2022-12-19T15:23:58.071Z,9.61
2022-12-19T15:26:33.209Z,9.51
2022-12-19T15:29:02.893Z,9.51
2022-12-19T15:31:36.048Z,9.53
2022-12-19T15:34:35.025Z,9.58
2022-12-19T15:37:05.047Z,9.61
2022-12-19T15:39:32.880Z,9.65
2022-12-19T15:42:02.905Z,9.59
2022-12-19T15:44:37.828Z,9.75
2022-12-19T15:47:15.660Z,9.79
2022-12-19T15:49:43.617Z,9.78
2022-12-19T15:52:17.314Z,9.75
2022-12-19T15:54:50.075Z,9.61
2022-12-19T15:57:32.494Z,9.57
2022-12-19T16:00:09.015Z,9.45
2022-12-19T16:03:21.052Z,9.52
2022-12-19T16:05:29.505Z,9.47
2022-12-19T16:07:58.822Z,9.44
2022-12-19T16:10:29.472Z,9.52
2022-12-19T16:12:58.845Z,9.60
2022-12-19T16:15:33.696Z,9.67
2022-12-19T16:18:03.789Z,9.75
2022-12-19T16:20:39.330Z,9.72
2022-12-19T16:23:08.204Z,9.79
2022-12-19T16:25:41.212Z,9.78
2022-12-19T16:28:18.349Z,9.92
2022-12-19T16:30:47.396Z,9.82
2022-12-19T16:33:22.144Z,9.87
2022-12-19T16:36:07.650Z,9.85
2022-12-19T16:38:36.548Z,9.87
2022-12-19T16:41:04.618Z,9.91
2022-12-19T16:43:38.502Z,9.93
2022-12-19T16:46:08.595Z,10.01
2022-12-19T16:48:36.455Z,10.08
2022-12-19T16:51:04.828Z,10.04
2022-12-19T16:53:33.171Z,10.04
2022-12-19T16:56:02.437Z,10.05
2022-12-19T16:58:30.311Z,10.14
2022-12-19T17:00:59.602Z,10.24
2022-12-19T17:03:37.123Z,10.12
2022-12-19T17:06:05.039Z,10.12
2022-12-19T17:08:33.005Z,10.17
2022-12-19T17:11:00.794Z,10.16
2022-12-19T17:13:28.897Z,10.15
2022-12-19T17:16:55.354Z,9.98
2022-12-19T17:23:15.722Z,9.87
2022-12-19T17:25:44.714Z,9.94
2022-12-19T17:28:13.003Z,9.84
2022-12-19T17:30:43.958Z,9.82
2022-12-19T17:37:04.415Z,9.97
2022-12-19T17:39:34.523Z,9.99
2022-12-19T17:42:16.402Z,9.90
2022-12-19T17:44:44.280Z,10.01
2022-12-19T17:47:14.906Z,10.07
2022-12-19T17:49:43.431Z,10.09
2022-12-19T17:52:16.329Z,10.07
2022-12-19T17:54:44.367Z,10.07
2022-12-19T17:57:14.359Z,10.04
2022-12-19T17:59:42.616Z,10.02
2022-12-19T18:02:21.241Z,10.03
2022-12-19T18:04:50.679Z,10.13
2022-12-19T18:07:19.831Z,10.16
2022-12-19T18:09:47.769Z,10.07
2022-12-19T18:12:15.720Z,10.10
2022-12-19T18:14:43.688Z,10.02
2022-12-19T18:17:13.670Z,10.06
2022-12-19T18:19:41.741Z,10.08
2022-12-19T18:22:12.664Z,10.02
2022-12-19T18:24:45.518Z,10.14
2022-12-19T18:27:14.473Z,10.09
2022-12-19T18:29:42.884Z,10.02
2022-12-19T18:32:19.062Z,10.07
2022-12-19T18:34:47.129Z,10.17
2022-12-19T18:37:15.833Z,10.23
2022-12-19T18:39:44.877Z,10.32
2022-12-19T18:42:20.647Z,10.22
2022-12-19T18:44:48.605Z,10.35
2022-12-19T18:47:22.120Z,10.30
2022-12-19T18:49:51.854Z,10.23
2022-12-19T18:52:19.649Z,10.32
2022-12-19T18:54:48.917Z,10.31
2022-12-19T18:57:16.660Z,10.38
2022-12-19T18:59:44.424Z,10.40
2022-12-19T19:02:26.244Z,10.44
2022-12-19T19:04:55.691Z,10.45
2022-12-19T19:07:23.463Z,10.47
2022-12-19T19:09:52.602Z,10.54
2022-12-19T19:12:36.411Z,10.57
2022-12-19T19:15:05.534Z,10.62
2022-12-19T19:17:33.474Z,10.63
2022-12-19T19:20:02.625Z,10.63
2022-12-19T19:22:30.744Z,10.59
2022-12-19T19:24:59.864Z,10.54
2022-12-19T19:27:27.872Z,10.51
2022-12-19T19:29:55.626Z,10.48
2022-12-19T19:32:25.322Z,10.41
2022-12-19T19:34:55.503Z,10.29
2022-12-19T19:37:23.644Z,10.34
2022-12-19T19:39:51.457Z,10.36
2022-12-19T19:42:20.499Z,10.29
2022-12-19T19:44:48.263Z,10.40
2022-12-19T19:47:16.082Z,10.48
2022-12-19T19:49:44.043Z,10.49
2022-12-19T19:52:11.820Z,10.64
2022-12-19T19:54:39.674Z,10.70
2022-12-19T19:57:08.271Z,10.73
2022-12-19T19:59:38.013Z,10.88
2022-12-19T20:02:05.925Z,10.90
2022-12-19T20:04:34.445Z,10.98
2022-12-19T20:07:02.906Z,11.00
2022-12-19T20:09:31.302Z,11.04
2022-12-19T20:11:59.687Z,10.99
2022-12-19T20:14:27.774Z,11.04
2022-12-19T20:16:56.895Z,11.03
2022-12-19T20:19:25.041Z,10.94
2022-12-19T20:21:53.064Z,10.94
2022-12-19T20:24:20.913Z,10.87
2022-12-19T20:26:48.649Z,10.83
2022-12-19T20:29:16.592Z,10.81
2022-12-19T20:31:44.690Z,10.75
2022-12-19T20:34:13.764Z,10.70
2022-12-19T20:36:41.762Z,10.78
2022-12-19T20:39:09.874Z,10.83
2022-12-19T20:41:38.030Z,10.95
2022-12-19T20:44:05.879Z,11.03
2022-12-19T20:46:33.763Z,11.03
2022-12-19T20:49:01.632Z,11.06
2022-12-19T20:51:30.867Z,11.03
2022-12-19T20:53:58.713Z,11.05
2022-12-19T20:56:26.650Z,11.03
2022-12-19T20:58:54.803Z,10.97
2022-12-19T21:01:25.380Z,11.04
2022-12-19T21:03:53.705Z,11.01
2022-12-19T21:06:26.071Z,11.09
2022-12-19T21:08:56.975Z,11.11
2022-12-19T21:11:26.437Z,11.07
2022-12-19T21:13:54.522Z,11.18
2022-12-19T21:16:23.560Z,11.23
2022-12-19T21:18:52.029Z,11.30
2022-12-19T21:21:23.331Z,11.27
2022-12-19T21:23:51.933Z,11.34
2022-12-19T21:26:23.472Z,11.34
2022-12-19T21:28:52.544Z,11.30
2022-12-19T21:31:24.978Z,11.39
2022-12-19T21:33:55.386Z,11.37
2022-12-19T21:36:25.701Z,11.41
2022-12-19T21:38:57.089Z,11.38
2022-12-19T21:41:26.303Z,11.36
2022-12-19T21:43:56.383Z,11.34
2022-12-19T21:46:28.051Z,11.41
2022-12-19T21:48:57.717Z,11.41
2022-12-19T21:51:29.430Z,11.47
2022-12-19T21:54:00.833Z,11.52
2022-12-19T21:56:34.089Z,11.53
2022-12-19T21:59:05.051Z,11.56
2022-12-19T22:01:34.128Z,11.59
2022-12-19T22:04:06.577Z,11.57
2022-12-19T22:06:37.853Z,11.55
2022-12-19T22:09:11.951Z,11.47
2022-12-19T22:11:42.096Z,11.43
2022-12-19T22:14:12.698Z,11.48
2022-12-19T22:16:40.672Z,11.39
2022-12-19T22:19:10.805Z,11.42
2022-12-19T22:21:38.967Z,11.38
2022-12-19T22:24:10.633Z,11.34
2022-12-19T22:26:38.836Z,11.21
2022-12-19T22:29:11.505Z,11.20
2022-12-19T22:31:39.959Z,11.25
2022-12-19T22:34:12.192Z,11.15
2022-12-19T22:36:42.221Z,11.06
2022-12-19T22:39:14.003Z,11.08
2022-12-19T22:41:42.759Z,11.08
2022-12-19T22:44:18.456Z,11.00
2022-12-19T22:46:49.479Z,11.03
2022-12-19T22:49:17.807Z,11.02
2022-12-19T22:51:45.993Z,10.97
2022-12-19T22:54:14.078Z,10.97
2022-12-19T22:56:42.381Z,10.89
2022-12-19T22:59:13.232Z,10.95
2022-12-19T23:01:43.586Z,11.01
2022-12-19T23:04:15.002Z,10.97
2022-12-19T23:06:44.187Z,10.90
2022-12-19T23:09:17.963Z,10.92
2022-12-19T23:11:48.671Z,10.83
2022-12-19T23:14:20.405Z,10.90
2022-12-19T23:16:49.150Z,10.84
2022-12-19T23:19:18.373Z,10.86
2022-12-19T23:21:46.533Z,10.91
2022-12-19T23:24:14.992Z,10.98
2022-12-19T23:26:42.894Z,11.00
2022-12-19T23:29:13.768Z,11.11
2022-12-19T23:31:46.643Z,11.13
2022-12-19T23:34:15.573Z,11.14
2022-12-19T23:37:10.217Z,11.22
2022-12-19T23:39:31.063Z,11.20
2022-12-19T23:41:58.784Z,11.15
2022-12-19T23:44:27.409Z,11.18
2022-12-19T23:47:03.021Z,11.22
2022-12-19T23:49:32.723Z,11.33
2022-12-19T23:52:00.672Z,11.27
2022-12-19T23:54:28.563Z,11.28
2022-12-19T23:56:56.894Z,11.32
2022-12-19T23:59:24.763Z,11.37
